sensor_id;sensor_type;location;lat;lon;timestamp;temperature;humidity
21778;DHT22;11050;52.222;20.916;2023-03-01T00:01:28;-2.20;99.90
21778;DHT22;11050;52.222;20.916;2023-03-01T00:03:55;-2.30;99.90
21778;DHT22;11050;52.222;20.916;2023-03-01T00:06:23;-2.30;99.90
21778;DHT22;11050;52.222;20.916;2023-03-01T00:08:49;-2.30;99.90
21778;DHT22;11050;52.222;20.916;2023-03-01T00:11:21;-2.20;99.90
21778;DHT22;11050;52.222;20.916;2023-03-01T00:13:51;-2.20;99.90
21778;DHT22;11050;52.222;20.916;2023-03-01T00:16:21;-2.20;99.90
21778;DHT22;11050;52.222;20.916;2023-03-01T00:18:49;-2.20;99.90
21778;DHT22;11050;52.222;20.916;2023-03-01T00:21:16;-2.20;99.90
21778;DHT22;11050;52.222;20.916;2023-03-01T00:23:43;-2.20;99.90
21778;DHT22;11050;52.222;20.916;2023-03-01T00:26:10;-2.20;99.90
21778;DHT22;11050;52.222;20.916;2023-03-01T00:28:38;-2.20;99.90
21778;DHT22;11050;52.222;20.916;2023-03-01T00:31:13;-2.20;99.90
21778;DHT22;11050;52.222;20.916;2023-03-01T00:33:42;-2.20;99.90
21778;DHT22;11050;52.222;20.916;2023-03-01T00:36:10;-2.30;99.90
21778;DHT22;11050;52.222;20.916;2023-03-01T00:38:45;-2.20;99.90
21778;DHT22;11050;52.222;20.916;2023-03-01T00:41:13;-2.30;99.90
21778;DHT22;11050;52.222;20.916;2023-03-01T00:43:41;-2.30;99.90
21778;DHT22;11050;52.222;20.916;2023-03-01T00:46:10;-2.30;99.90
21778;DHT22;11050;52.222;20.916;2023-03-01T00:48:39;-2.30;99.90
21778;DHT22;11050;52.222;20.916;2023-03-01T00:51:10;-2.30;99.90
21778;DHT22;11050;52.222;20.916;2023-03-01T00:53:41;-2.30;99.90
21778;DHT22;11050;52.222;20.916;2023-03-01T00:56:09;-2.30;99.90
21778;DHT22;11050;52.222;20.916;2023-03-01T00:58:36;-2.30;99.90
21778;DHT22;11050;52.222;20.916;2023-03-01T01:01:29;-2.30;99.90
21778;DHT22;11050;52.222;20.916;2023-03-01T01:03:57;-2.30;99.90
21778;DHT22;11050;52.222;20.916;2023-03-01T01:06:30;-2.30;99.90
21778;DHT22;11050;52.222;20.916;2023-03-01T01:08:58;-2.30;99.90
21778;DHT22;11050;52.222;20.916;2023-03-01T01:11:26;-2.30;99.90
21778;DHT22;11050;52.222;20.916;2023-03-01T01:13:54;-2.30;99.90
21778;DHT22;11050;52.222;20.916;2023-03-01T01:16:23;-2.30;99.90
21778;DHT22;11050;52.222;20.916;2023-03-01T01:18:50;-2.30;99.90
21778;DHT22;11050;52.222;20.916;2023-03-01T01:21:18;-2.30;99.90
21778;DHT22;11050;52.222;20.916;2023-03-01T01:23:47;-2.30;99.90
21778;DHT22;11050;52.222;20.916;2023-03-01T01:26:17;-2.30;99.90
21778;DHT22;11050;52.222;20.916;2023-03-01T01:28:45;-2.30;99.90
21778;DHT22;11050;52.222;20.916;2023-03-01T01:31:13;-2.30;99.90
21778;DHT22;11050;52.222;20.916;2023-03-01T01:33:39;-2.30;99.90
21778;DHT22;11050;52.222;20.916;2023-03-01T01:36:06;-2.30;99.90
21778;DHT22;11050;52.222;20.916;2023-03-01T01:38:34;-2.30;99.90
21778;DHT22;11050;52.222;20.916;2023-03-01T01:41:02;-2.30;99.90
21778;DHT22;11050;52.222;20.916;2023-03-01T01:43:37;-2.30;99.90
21778;DHT22;11050;52.222;20.916;2023-03-01T01:46:18;-2.30;99.90
21778;DHT22;11050;52.222;20.916;2023-03-01T01:49:11;-2.30;99.90
21778;DHT22;11050;52.222;20.916;2023-03-01T01:51:45;-2.30;99.90
21778;DHT22;11050;52.222;20.916;2023-03-01T01:54:23;-2.30;99.90
21778;DHT22;11050;52.222;20.916;2023-03-01T01:56:57;-2.30;99.90
21778;DHT22;11050;52.222;20.916;2023-03-01T01:59:28;-2.40;99.90
21778;DHT22;11050;52.222;20.916;2023-03-01T02:01:59;-2.40;99.90
21778;DHT22;11050;52.222;20.916;2023-03-01T02:04:29;-2.40;99.90
21778;DHT22;11050;52.222;20.916;2023-03-01T02:07:17;-2.40;99.90
21778;DHT22;11050;52.222;20.916;2023-03-01T02:09:47;-2.40;99.90
21778;DHT22;11050;52.222;20.916;2023-03-01T02:12:17;-2.40;99.90
21778;DHT22;11050;52.222;20.916;2023-03-01T02:14:46;-2.40;99.90
21778;DHT22;11050;52.222;20.916;2023-03-01T02:17:13;-2.40;99.90
21778;DHT22;11050;52.222;20.916;2023-03-01T02:20:07;-2.40;99.90
21778;DHT22;11050;52.222;20.916;2023-03-01T02:22:39;-2.40;99.90
21778;DHT22;11050;52.222;20.916;2023-03-01T02:30:33;-2.50;99.90
21778;DHT22;11050;52.222;20.916;2023-03-01T02:33:00;-2.50;99.90
21778;DHT22;11050;52.222;20.916;2023-03-01T02:36:04;-2.50;99.90
21778;DHT22;11050;52.222;20.916;2023-03-01T02:38:34;-2.50;99.90
21778;DHT22;11050;52.222;20.916;2023-03-01T02:41:01;-2.50;99.90
21778;DHT22;11050;52.222;20.916;2023-03-01T02:43:32;-2.50;99.90
21778;DHT22;11050;52.222;20.916;2023-03-01T02:46:02;-2.50;99.90
21778;DHT22;11050;52.222;20.916;2023-03-01T02:49:00;-2.50;99.90
21778;DHT22;11050;52.222;20.916;2023-03-01T02:55:06;-2.50;99.90
21778;DHT22;11050;52.222;20.916;2023-03-01T02:57:39;-2.60;99.90
21778;DHT22;11050;52.222;20.916;2023-03-01T03:00:10;-2.60;99.90
21778;DHT22;11050;52.222;20.916;2023-03-01T03:02:49;-2.60;99.90
21778;DHT22;11050;52.222;20.916;2023-03-01T03:05:19;-2.60;99.90
21778;DHT22;11050;52.222;20.916;2023-03-01T03:07:47;-2.60;99.90
21778;DHT22;11050;52.222;20.916;2023-03-01T03:10:25;-2.50;99.90
21778;DHT22;11050;52.222;20.916;2023-03-01T03:12:56;-2.60;99.90
21778;DHT22;11050;52.222;20.916;2023-03-01T03:15:23;-2.60;99.90
21778;DHT22;11050;52.222;20.916;2023-03-01T03:17:51;-2.60;99.90
21778;DHT22;11050;52.222;20.916;2023-03-01T03:20:19;-2.60;99.90
21778;DHT22;11050;52.222;20.916;2023-03-01T03:22:48;-2.60;99.90
21778;DHT22;11050;52.222;20.916;2023-03-01T03:25:17;-2.60;99.90
21778;DHT22;11050;52.222;20.916;2023-03-01T03:27:45;-2.60;99.90
21778;DHT22;11050;52.222;20.916;2023-03-01T03:30:17;-2.60;99.90
21778;DHT22;11050;52.222;20.916;2023-03-01T03:32:46;-2.60;99.90
21778;DHT22;11050;52.222;20.916;2023-03-01T03:35:32;-2.60;99.90
21778;DHT22;11050;52.222;20.916;2023-03-01T03:38:13;-2.60;99.90
21778;DHT22;11050;52.222;20.916;2023-03-01T03:41:08;-2.60;99.90
21778;DHT22;11050;52.222;20.916;2023-03-01T03:43:35;-2.60;99.90
21778;DHT22;11050;52.222;20.916;2023-03-01T03:46:03;-2.50;99.90
21778;DHT22;11050;52.222;20.916;2023-03-01T03:48:40;-2.60;99.90
21778;DHT22;11050;52.222;20.916;2023-03-01T03:51:14;-2.50;99.90
21778;DHT22;11050;52.222;20.916;2023-03-01T03:53:41;-2.50;99.90
21778;DHT22;11050;52.222;20.916;2023-03-01T03:56:08;-2.50;99.90
21778;DHT22;11050;52.222;20.916;2023-03-01T03:58:34;-2.50;99.90
21778;DHT22;11050;52.222;20.916;2023-03-01T04:01:00;-2.50;99.90
21778;DHT22;11050;52.222;20.916;2023-03-01T04:03:27;-2.50;99.90
21778;DHT22;11050;52.222;20.916;2023-03-01T04:05:56;-2.40;99.90
21778;DHT22;11050;52.222;20.916;2023-03-01T04:08:23;-2.40;99.90
21778;DHT22;11050;52.222;20.916;2023-03-01T04:10:51;-2.50;99.90
21778;DHT22;11050;52.222;20.916;2023-03-01T04:13:22;-2.40;99.90
21778;DHT22;11050;52.222;20.916;2023-03-01T04:15:51;-2.40;99.90
21778;DHT22;11050;52.222;20.916;2023-03-01T04:18:20;-2.40;99.90
21778;DHT22;11050;52.222;20.916;2023-03-01T04:20:47;-2.40;99.90
21778;DHT22;11050;52.222;20.916;2023-03-01T04:23:16;-2.40;99.90
21778;DHT22;11050;52.222;20.916;2023-03-01T04:25:56;-2.40;99.90
21778;DHT22;11050;52.222;20.916;2023-03-01T04:28:50;-2.40;99.90
21778;DHT22;11050;52.222;20.916;2023-03-01T04:31:17;-2.40;99.90
21778;DHT22;11050;52.222;20.916;2023-03-01T04:33:49;-2.40;99.90
21778;DHT22;11050;52.222;20.916;2023-03-01T04:36:17;-2.40;99.90
21778;DHT22;11050;52.222;20.916;2023-03-01T04:38:45;-2.40;99.90
21778;DHT22;11050;52.222;20.916;2023-03-01T04:41:16;-2.40;99.90
21778;DHT22;11050;52.222;20.916;2023-03-01T04:43:43;-2.40;99.90
21778;DHT22;11050;52.222;20.916;2023-03-01T04:46:12;-2.40;99.90
21778;DHT22;11050;52.222;20.916;2023-03-01T04:48:41;-2.40;99.90
21778;DHT22;11050;52.222;20.916;2023-03-01T04:51:08;-2.40;99.90
21778;DHT22;11050;52.222;20.916;2023-03-01T04:53:35;-2.40;99.90
21778;DHT22;11050;52.222;20.916;2023-03-01T04:56:04;-2.40;99.90
21778;DHT22;11050;52.222;20.916;2023-03-01T04:58:30;-2.40;99.90
21778;DHT22;11050;52.222;20.916;2023-03-01T05:00:56;-2.40;99.90
21778;DHT22;11050;52.222;20.916;2023-03-01T05:03:22;-2.40;99.90
21778;DHT22;11050;52.222;20.916;2023-03-01T05:05:50;-2.50;99.90
21778;DHT22;11050;52.222;20.916;2023-03-01T05:08:17;-2.40;99.90
21778;DHT22;11050;52.222;20.916;2023-03-01T05:10:50;-2.40;99.90
21778;DHT22;11050;52.222;20.916;2023-03-01T05:13:19;-2.40;99.90
21778;DHT22;11050;52.222;20.916;2023-03-01T05:15:54;-2.50;99.90
21778;DHT22;11050;52.222;20.916;2023-03-01T05:18:23;-2.40;99.90
21778;DHT22;11050;52.222;20.916;2023-03-01T05:21:03;-2.50;99.90
21778;DHT22;11050;52.222;20.916;2023-03-01T05:23:32;-2.50;99.90
21778;DHT22;11050;52.222;20.916;2023-03-01T05:26:00;-2.40;99.90
21778;DHT22;11050;52.222;20.916;2023-03-01T05:28:27;-2.40;99.90
21778;DHT22;11050;52.222;20.916;2023-03-01T05:30:56;-2.40;99.90
21778;DHT22;11050;52.222;20.916;2023-03-01T05:33:23;-2.40;99.90
21778;DHT22;11050;52.222;20.916;2023-03-01T05:35:50;-2.40;99.90
21778;DHT22;11050;52.222;20.916;2023-03-01T05:38:18;-2.40;99.90
21778;DHT22;11050;52.222;20.916;2023-03-01T05:40:45;-2.40;99.90
21778;DHT22;11050;52.222;20.916;2023-03-01T05:43:13;-2.30;99.90
21778;DHT22;11050;52.222;20.916;2023-03-01T05:45:40;-2.40;99.90
21778;DHT22;11050;52.222;20.916;2023-03-01T05:48:08;-2.30;99.90
21778;DHT22;11050;52.222;20.916;2023-03-01T05:50:37;-2.30;99.90
21778;DHT22;11050;52.222;20.916;2023-03-01T05:53:13;-2.30;99.90
21778;DHT22;11050;52.222;20.916;2023-03-01T05:55:41;-2.20;99.90
21778;DHT22;11050;52.222;20.916;2023-03-01T05:58:11;-2.20;99.90
21778;DHT22;11050;52.222;20.916;2023-03-01T06:00:43;-2.20;99.90
21778;DHT22;11050;52.222;20.916;2023-03-01T06:03:11;-2.10;99.90
21778;DHT22;11050;52.222;20.916;2023-03-01T06:05:39;-2.10;99.90
21778;DHT22;11050;52.222;20.916;2023-03-01T06:08:06;-2.10;99.90
21778;DHT22;11050;52.222;20.916;2023-03-01T06:10:32;-2.10;99.90
21778;DHT22;11050;52.222;20.916;2023-03-01T06:12:58;-2.00;99.90
21778;DHT22;11050;52.222;20.916;2023-03-01T06:15:25;-2.00;99.90
21778;DHT22;11050;52.222;20.916;2023-03-01T06:17:51;-1.90;99.90
21778;DHT22;11050;52.222;20.916;2023-03-01T06:20:23;-1.90;99.90
21778;DHT22;11050;52.222;20.916;2023-03-01T06:22:50;-1.80;99.90
21778;DHT22;11050;52.222;20.916;2023-03-01T06:25:21;-1.80;99.90
21778;DHT22;11050;52.222;20.916;2023-03-01T06:27:48;-1.80;99.90
21778;DHT22;11050;52.222;20.916;2023-03-01T06:30:16;-1.70;99.90
21778;DHT22;11050;52.222;20.916;2023-03-01T06:32:43;-1.70;99.90
21778;DHT22;11050;52.222;20.916;2023-03-01T06:35:10;-1.60;99.90
21778;DHT22;11050;52.222;20.916;2023-03-01T06:37:39;-1.50;99.90
21778;DHT22;11050;52.222;20.916;2023-03-01T06:40:06;-1.50;99.90
21778;DHT22;11050;52.222;20.916;2023-03-01T06:42:36;-1.40;99.90
21778;DHT22;11050;52.222;20.916;2023-03-01T06:45:06;-1.40;99.90
21778;DHT22;11050;52.222;20.916;2023-03-01T06:47:33;-1.30;99.90
21778;DHT22;11050;52.222;20.916;2023-03-01T06:50:00;-1.30;99.90
21778;DHT22;11050;52.222;20.916;2023-03-01T06:52:26;-1.20;99.90
21778;DHT22;11050;52.222;20.916;2023-03-01T06:54:52;-1.20;99.90
21778;DHT22;11050;52.222;20.916;2023-03-01T06:57:17;-1.10;99.90
21778;DHT22;11050;52.222;20.916;2023-03-01T06:59:43;-1.00;99.90
21778;DHT22;11050;52.222;20.916;2023-03-01T07:02:10;-1.00;99.90
21778;DHT22;11050;52.222;20.916;2023-03-01T07:04:37;-1.00;99.90
21778;DHT22;11050;52.222;20.916;2023-03-01T07:07:03;-0.90;99.90
21778;DHT22;11050;52.222;20.916;2023-03-01T07:09:29;-0.80;99.90
21778;DHT22;11050;52.222;20.916;2023-03-01T07:11:54;-0.70;99.90
21778;DHT22;11050;52.222;20.916;2023-03-01T07:14:22;-0.70;99.90
21778;DHT22;11050;52.222;20.916;2023-03-01T07:16:50;-0.60;99.90
21778;DHT22;11050;52.222;20.916;2023-03-01T07:19:15;-0.50;99.90
21778;DHT22;11050;52.222;20.916;2023-03-01T07:21:41;-0.50;99.90
21778;DHT22;11050;52.222;20.916;2023-03-01T07:24:07;-0.40;99.90
21778;DHT22;11050;52.222;20.916;2023-03-01T07:26:33;-0.40;99.90
21778;DHT22;11050;52.222;20.916;2023-03-01T07:29:00;-0.30;99.90
21778;DHT22;11050;52.222;20.916;2023-03-01T07:31:27;-0.30;99.90
21778;DHT22;11050;52.222;20.916;2023-03-01T07:33:54;-0.20;99.90
21778;DHT22;11050;52.222;20.916;2023-03-01T07:36:20;-0.20;99.90
21778;DHT22;11050;52.222;20.916;2023-03-01T07:38:46;-0.10;99.90
21778;DHT22;11050;52.222;20.916;2023-03-01T07:41:11;-0.10;99.90
21778;DHT22;11050;52.222;20.916;2023-03-01T07:43:37;0.00;99.90
21778;DHT22;11050;52.222;20.916;2023-03-01T07:46:03;0.10;99.90
21778;DHT22;11050;52.222;20.916;2023-03-01T07:48:30;0.10;99.90
21778;DHT22;11050;52.222;20.916;2023-03-01T07:51:00;0.20;99.90
21778;DHT22;11050;52.222;20.916;2023-03-01T07:53:27;0.30;99.90
21778;DHT22;11050;52.222;20.916;2023-03-01T07:56:10;0.40;99.90
21778;DHT22;11050;52.222;20.916;2023-03-01T07:58:38;0.40;99.90
21778;DHT22;11050;52.222;20.916;2023-03-01T08:01:08;0.50;99.90
21778;DHT22;11050;52.222;20.916;2023-03-01T08:03:36;0.60;99.90
21778;DHT22;11050;52.222;20.916;2023-03-01T08:06:04;0.70;99.90
21778;DHT22;11050;52.222;20.916;2023-03-01T08:08:34;0.70;99.90
21778;DHT22;11050;52.222;20.916;2023-03-01T08:11:01;0.80;99.90
21778;DHT22;11050;52.222;20.916;2023-03-01T08:13:29;0.90;99.90
21778;DHT22;11050;52.222;20.916;2023-03-01T08:16:01;1.00;99.90
21778;DHT22;11050;52.222;20.916;2023-03-01T08:18:31;1.10;99.90
21778;DHT22;11050;52.222;20.916;2023-03-01T08:21:02;1.10;99.90
21778;DHT22;11050;52.222;20.916;2023-03-01T08:23:39;1.30;99.90
21778;DHT22;11050;52.222;20.916;2023-03-01T08:26:17;1.40;99.90
21778;DHT22;11050;52.222;20.916;2023-03-01T08:28:45;1.50;99.90
21778;DHT22;11050;52.222;20.916;2023-03-01T08:31:26;1.50;99.90
21778;DHT22;11050;52.222;20.916;2023-03-01T08:34:06;1.60;99.90
21778;DHT22;11050;52.222;20.916;2023-03-01T08:36:40;1.80;99.90
21778;DHT22;11050;52.222;20.916;2023-03-01T08:39:09;1.90;99.90
21778;DHT22;11050;52.222;20.916;2023-03-01T08:41:36;2.10;99.90
21778;DHT22;11050;52.222;20.916;2023-03-01T08:44:03;2.20;99.90
21778;DHT22;11050;52.222;20.916;2023-03-01T08:46:32;2.30;99.90
21778;DHT22;11050;52.222;20.916;2023-03-01T08:49:04;2.40;99.90
21778;DHT22;11050;52.222;20.916;2023-03-01T08:51:30;2.50;99.90
21778;DHT22;11050;52.222;20.916;2023-03-01T08:54:05;2.60;99.90
21778;DHT22;11050;52.222;20.916;2023-03-01T08:56:33;2.70;99.90
21778;DHT22;11050;52.222;20.916;2023-03-01T08:58:59;2.80;99.90
21778;DHT22;11050;52.222;20.916;2023-03-01T09:01:25;2.90;99.90
21778;DHT22;11050;52.222;20.916;2023-03-01T09:03:51;3.00;99.90
21778;DHT22;11050;52.222;20.916;2023-03-01T09:06:17;3.10;99.90
21778;DHT22;11050;52.222;20.916;2023-03-01T09:08:46;3.20;99.90
21778;DHT22;11050;52.222;20.916;2023-03-01T09:11:15;3.30;99.90
21778;DHT22;11050;52.222;20.916;2023-03-01T09:13:47;3.30;99.90
21778;DHT22;11050;52.222;20.916;2023-03-01T09:16:15;3.40;99.90
21778;DHT22;11050;52.222;20.916;2023-03-01T09:18:43;3.40;99.90
21778;DHT22;11050;52.222;20.916;2023-03-01T09:21:15;3.50;99.90
21778;DHT22;11050;52.222;20.916;2023-03-01T09:23:44;3.60;99.90
21778;DHT22;11050;52.222;20.916;2023-03-01T09:26:14;3.70;99.90
21778;DHT22;11050;52.222;20.916;2023-03-01T09:28:48;3.80;99.90
21778;DHT22;11050;52.222;20.916;2023-03-01T09:31:16;3.90;99.90
21778;DHT22;11050;52.222;20.916;2023-03-01T09:33:46;4.00;99.90
21778;DHT22;11050;52.222;20.916;2023-03-01T09:36:15;4.00;99.90
21778;DHT22;11050;52.222;20.916;2023-03-01T09:38:43;4.00;99.90
21778;DHT22;11050;52.222;20.916;2023-03-01T09:41:18;4.00;99.90
21778;DHT22;11050;52.222;20.916;2023-03-01T09:43:53;4.10;99.90
21778;DHT22;11050;52.222;20.916;2023-03-01T09:46:25;4.10;99.90
21778;DHT22;11050;52.222;20.916;2023-03-01T09:48:56;4.20;99.90
21778;DHT22;11050;52.222;20.916;2023-03-01T09:51:27;4.20;99.90
21778;DHT22;11050;52.222;20.916;2023-03-01T09:53:57;4.20;99.90
21778;DHT22;11050;52.222;20.916;2023-03-01T10:04:57;4.40;99.90
21778;DHT22;11050;52.222;20.916;2023-03-01T10:07:50;4.50;99.90
21778;DHT22;11050;52.222;20.916;2023-03-01T10:10:36;4.50;99.90
21778;DHT22;11050;52.222;20.916;2023-03-01T10:13:18;4.60;99.90
21778;DHT22;11050;52.222;20.916;2023-03-01T10:15:54;4.70;99.90
21778;DHT22;11050;52.222;20.916;2023-03-01T10:18:28;4.80;99.90
21778;DHT22;11050;52.222;20.916;2023-03-01T10:21:03;4.90;99.90
21778;DHT22;11050;52.222;20.916;2023-03-01T10:23:38;5.00;99.90
21778;DHT22;11050;52.222;20.916;2023-03-01T10:26:39;5.10;99.90
21778;DHT22;11050;52.222;20.916;2023-03-01T10:29:13;5.10;99.90
21778;DHT22;11050;52.222;20.916;2023-03-01T10:31:52;5.10;99.90
21778;DHT22;11050;52.222;20.916;2023-03-01T10:34:31;5.30;99.90
21778;DHT22;11050;52.222;20.916;2023-03-01T10:42:47;5.60;99.90
21778;DHT22;11050;52.222;20.916;2023-03-01T10:50:33;5.80;98.00
21778;DHT22;11050;52.222;20.916;2023-03-01T10:53:02;5.80;97.80
21778;DHT22;11050;52.222;20.916;2023-03-01T10:55:39;5.80;97.50
21778;DHT22;11050;52.222;20.916;2023-03-01T11:00:55;6.00;97.40
21778;DHT22;11050;52.222;20.916;2023-03-01T11:03:40;6.00;97.00
21778;DHT22;11050;52.222;20.916;2023-03-01T11:06:20;6.10;96.80
21778;DHT22;11050;52.222;20.916;2023-03-01T11:08:49;6.20;96.50
21778;DHT22;11050;52.222;20.916;2023-03-01T11:11:21;6.30;96.10
21778;DHT22;11050;52.222;20.916;2023-03-01T11:13:56;6.40;95.80
21778;DHT22;11050;52.222;20.916;2023-03-01T11:16:32;6.50;95.80
21778;DHT22;11050;52.222;20.916;2023-03-01T11:19:21;6.70;95.50
21778;DHT22;11050;52.222;20.916;2023-03-01T11:22:18;6.90;94.80
21778;DHT22;11050;52.222;20.916;2023-03-01T11:24:53;7.10;94.70
21778;DHT22;11050;52.222;20.916;2023-03-01T11:27:36;7.40;93.80
21778;DHT22;11050;52.222;20.916;2023-03-01T11:33:13;7.90;92.00
21778;DHT22;11050;52.222;20.916;2023-03-01T11:35:56;8.10;91.00
21778;DHT22;11050;52.222;20.916;2023-03-01T11:38:28;8.20;90.40
21778;DHT22;11050;52.222;20.916;2023-03-01T11:41:07;8.30;90.20
21778;DHT22;11050;52.222;20.916;2023-03-01T11:44:11;8.30;90.00
21778;DHT22;11050;52.222;20.916;2023-03-01T11:56:27;8.80;88.20
21778;DHT22;11050;52.222;20.916;2023-03-01T11:59:35;9.20;86.20
21778;DHT22;11050;52.222;20.916;2023-03-01T12:02:35;9.50;84.20
21778;DHT22;11050;52.222;20.916;2023-03-01T12:08:17;9.90;82.00
21778;DHT22;11050;52.222;20.916;2023-03-01T12:26:40;11.50;74.40
21778;DHT22;11050;52.222;20.916;2023-03-01T12:41:48;12.60;68.40
21778;DHT22;11050;52.222;20.916;2023-03-01T12:48:13;12.90;65.20
21778;DHT22;11050;52.222;20.916;2023-03-01T12:50:28;12.70;65.10
21778;DHT22;11050;52.222;20.916;2023-03-01T12:53:04;12.60;66.30
21778;DHT22;11050;52.222;20.916;2023-03-01T12:55:38;12.60;66.50
21778;DHT22;11050;52.222;20.916;2023-03-01T12:58:34;12.80;65.70
21778;DHT22;11050;52.222;20.916;2023-03-01T13:01:22;12.80;65.40
21778;DHT22;11050;52.222;20.916;2023-03-01T13:04:27;12.90;66.70
21778;DHT22;11050;52.222;20.916;2023-03-01T13:07:41;13.40;64.70
21778;DHT22;11050;52.222;20.916;2023-03-01T13:10:20;13.80;63.50
21778;DHT22;11050;52.222;20.916;2023-03-01T13:13:22;14.00;62.20
21778;DHT22;11050;52.222;20.916;2023-03-01T13:15:50;13.90;61.20
21778;DHT22;11050;52.222;20.916;2023-03-01T13:20:48;13.90;61.70
21778;DHT22;11050;52.222;20.916;2023-03-01T13:26:11;14.30;61.50
21778;DHT22;11050;52.222;20.916;2023-03-01T13:28:55;14.30;60.00
21778;DHT22;11050;52.222;20.916;2023-03-01T13:34:01;14.50;59.60
21778;DHT22;11050;52.222;20.916;2023-03-01T13:39:38;14.80;58.90
21778;DHT22;11050;52.222;20.916;2023-03-01T13:42:30;14.80;58.30
21778;DHT22;11050;52.222;20.916;2023-03-01T13:44:58;15.00;58.50
21778;DHT22;11050;52.222;20.916;2023-03-01T13:47:26;15.20;57.80
21778;DHT22;11050;52.222;20.916;2023-03-01T13:49:57;15.30;56.90
21778;DHT22;11050;52.222;20.916;2023-03-01T13:57:41;15.10;56.40
21778;DHT22;11050;52.222;20.916;2023-03-01T14:00:34;15.10;57.00
21778;DHT22;11050;52.222;20.916;2023-03-01T14:03:03;15.10;56.30
21778;DHT22;11050;52.222;20.916;2023-03-01T14:08:36;14.50;57.50
21778;DHT22;11050;52.222;20.916;2023-03-01T14:14:20;14.30;58.40
21778;DHT22;11050;52.222;20.916;2023-03-01T14:17:26;14.40;58.40
21778;DHT22;11050;52.222;20.916;2023-03-01T14:20:09;14.90;57.50
21778;DHT22;11050;52.222;20.916;2023-03-01T14:22:53;15.10;57.00
21778;DHT22;11050;52.222;20.916;2023-03-01T14:25:36;15.40;56.70
21778;DHT22;11050;52.222;20.916;2023-03-01T14:30:54;16.00;54.70
21778;DHT22;11050;52.222;20.916;2023-03-01T14:38:44;16.30;53.50
21778;DHT22;11050;52.222;20.916;2023-03-01T14:41:22;16.10;53.20
21778;DHT22;11050;52.222;20.916;2023-03-01T14:43:55;15.70;53.70
21778;DHT22;11050;52.222;20.916;2023-03-01T14:49:13;14.70;55.40
21778;DHT22;11050;52.222;20.916;2023-03-01T14:54:29;13.40;58.30
21778;DHT22;11050;52.222;20.916;2023-03-01T14:57:15;13.00;59.90
21778;DHT22;11050;52.222;20.916;2023-03-01T14:59:42;12.70;61.50
21778;DHT22;11050;52.222;20.916;2023-03-01T15:02:15;12.50;62.00
21778;DHT22;11050;52.222;20.916;2023-03-01T15:04:50;12.30;62.60
21778;DHT22;11050;52.222;20.916;2023-03-01T15:07:18;12.00;63.40
21778;DHT22;11050;52.222;20.916;2023-03-01T15:09:45;11.70;64.30
21778;DHT22;11050;52.222;20.916;2023-03-01T15:12:35;11.30;65.50
21778;DHT22;11050;52.222;20.916;2023-03-01T15:16:02;10.90;66.90
21778;DHT22;11050;52.222;20.916;2023-03-01T15:18:21;10.60;68.20
21778;DHT22;11050;52.222;20.916;2023-03-01T15:20:51;10.30;69.20
21778;DHT22;11050;52.222;20.916;2023-03-01T15:23:22;10.00;70.20
21778;DHT22;11050;52.222;20.916;2023-03-01T15:25:53;9.90;71.50
21778;DHT22;11050;52.222;20.916;2023-03-01T15:28:28;10.00;72.30
21778;DHT22;11050;52.222;20.916;2023-03-01T15:31:18;10.20;72.50
21778;DHT22;11050;52.222;20.916;2023-03-01T15:33:47;10.30;72.00
21778;DHT22;11050;52.222;20.916;2023-03-01T15:36:43;10.40;71.40
21778;DHT22;11050;52.222;20.916;2023-03-01T15:39:36;10.40;70.70
21778;DHT22;11050;52.222;20.916;2023-03-01T15:47:54;9.70;72.50
21778;DHT22;11050;52.222;20.916;2023-03-01T15:50:32;9.50;73.70
21778;DHT22;11050;52.222;20.916;2023-03-01T15:53:00;9.40;74.30
21778;DHT22;11050;52.222;20.916;2023-03-01T15:55:32;9.30;74.50
21778;DHT22;11050;52.222;20.916;2023-03-01T16:00:59;9.10;76.10
21778;DHT22;11050;52.222;20.916;2023-03-01T16:03:25;9.00;76.70
21778;DHT22;11050;52.222;20.916;2023-03-01T16:05:51;8.90;77.70
21778;DHT22;11050;52.222;20.916;2023-03-01T16:08:18;8.70;78.00
21778;DHT22;11050;52.222;20.916;2023-03-01T16:10:45;8.50;78.90
21778;DHT22;11050;52.222;20.916;2023-03-01T16:13:12;8.30;78.90
21778;DHT22;11050;52.222;20.916;2023-03-01T16:15:38;8.10;80.20
21778;DHT22;11050;52.222;20.916;2023-03-01T16:18:05;7.90;81.30
21778;DHT22;11050;52.222;20.916;2023-03-01T16:20:33;7.60;82.40
21778;DHT22;11050;52.222;20.916;2023-03-01T16:23:00;7.50;83.50
21778;DHT22;11050;52.222;20.916;2023-03-01T16:25:28;7.30;84.40
21778;DHT22;11050;52.222;20.916;2023-03-01T16:27:55;7.10;85.70
21778;DHT22;11050;52.222;20.916;2023-03-01T16:30:23;7.00;86.50
21778;DHT22;11050;52.222;20.916;2023-03-01T16:32:50;6.80;87.20
21778;DHT22;11050;52.222;20.916;2023-03-01T16:35:18;6.70;88.80
21778;DHT22;11050;52.222;20.916;2023-03-01T16:37:46;6.50;90.20
21778;DHT22;11050;52.222;20.916;2023-03-01T16:40:24;6.40;90.60
21778;DHT22;11050;52.222;20.916;2023-03-01T16:42:52;6.30;91.00
21778;DHT22;11050;52.222;20.916;2023-03-01T16:45:20;6.30;91.30
21778;DHT22;11050;52.222;20.916;2023-03-01T16:47:46;6.20;92.20
21778;DHT22;11050;52.222;20.916;2023-03-01T16:50:12;6.10;92.80
21778;DHT22;11050;52.222;20.916;2023-03-01T16:52:38;6.00;93.00
21778;DHT22;11050;52.222;20.916;2023-03-01T16:55:05;6.00;93.80
21778;DHT22;11050;52.222;20.916;2023-03-01T16:57:34;5.90;95.00
21778;DHT22;11050;52.222;20.916;2023-03-01T17:00:00;5.90;96.30
21778;DHT22;11050;52.222;20.916;2023-03-01T17:02:34;5.80;97.60
21778;DHT22;11050;52.222;20.916;2023-03-01T17:05:00;5.70;99.20
21778;DHT22;11050;52.222;20.916;2023-03-01T17:07:28;5.70;99.90
21778;DHT22;11050;52.222;20.916;2023-03-01T17:09:59;5.60;99.90
21778;DHT22;11050;52.222;20.916;2023-03-01T17:12:28;5.50;99.90
21778;DHT22;11050;52.222;20.916;2023-03-01T17:14:54;5.50;99.90
21778;DHT22;11050;52.222;20.916;2023-03-01T17:17:20;5.40;99.90
21778;DHT22;11050;52.222;20.916;2023-03-01T17:19:45;5.30;99.90
21778;DHT22;11050;52.222;20.916;2023-03-01T17:22:11;5.20;99.90
21778;DHT22;11050;52.222;20.916;2023-03-01T17:24:42;5.10;99.90
21778;DHT22;11050;52.222;20.916;2023-03-01T17:27:10;5.00;99.90
21778;DHT22;11050;52.222;20.916;2023-03-01T17:29:38;4.90;99.90
21778;DHT22;11050;52.222;20.916;2023-03-01T17:32:05;4.70;99.90
21778;DHT22;11050;52.222;20.916;2023-03-01T17:34:32;4.60;99.90
21778;DHT22;11050;52.222;20.916;2023-03-01T17:36:59;4.60;99.90
21778;DHT22;11050;52.222;20.916;2023-03-01T17:39:25;4.50;99.90
21778;DHT22;11050;52.222;20.916;2023-03-01T17:41:55;4.30;99.90
21778;DHT22;11050;52.222;20.916;2023-03-01T17:44:22;4.30;99.90
21778;DHT22;11050;52.222;20.916;2023-03-01T17:46:48;4.20;99.90
21778;DHT22;11050;52.222;20.916;2023-03-01T17:49:13;4.10;99.90
21778;DHT22;11050;52.222;20.916;2023-03-01T17:51:41;4.00;99.90
21778;DHT22;11050;52.222;20.916;2023-03-01T17:54:07;4.00;99.90
21778;DHT22;11050;52.222;20.916;2023-03-01T17:56:32;3.90;99.90